Aeroporto :
LOGIN :

Iscrizione | Disclaimer

   EN    FR    IT 

 










Sommario :    VFR   VFR Marginale   IFR   IFR Intensivo   IFR Molto Intensivo
Visibilità : 
Base nubi : 
>= 8 km
>= 3000ft
5 / 8 km
1000 / 3000 ft
1500m / 5 km
500 / 1000 ft
800 / 1500m
200 / 500 ft
< 800m
< 200 ft
Simboli :   Temporali  Nebbia  Neve Forte  Precipitazioni Forti  Vento > 20 kt
SIGMETs :   Varie  Temporali  Ghiacco  Turbolenza  Onda orograficha  Ceneri Vulcaniche






- Altitudine del aeroporto : 25 ft
- Codice IATA : QCY


EGXC - RAF Coningsby

ULTIMO METAR :
  • 131421Z 16002KT 9999 FEW018 BKN200 08/04 Q0996 NOSIG RMK BLU BLU

METARs OBSOLETI :
  • 131350Z 20005KT 9999 SCT018 BKN200 08/04 Q0996 TEMPO FEW016 RMK WHT TEMPO BLU
  • 131320Z 23006KT 9999 SCT016 BKN200 08/04 Q0997 TEMPO FEW016 RMK WHT TEMPO BLU
  • 131250Z 24004KT 9999 FEW012 SCT050 BKN200 08/05 Q0997 TEMPO SCT015 RMK BLU TEMPO WHT
  • 131220Z 24003KT 9999 FEW010 SCT050 BKN180 07/04 Q0997 NOSIG RMK BLU BLU
  • 131150Z 27006KT 9999 FEW010 SCT050 BKN180 07/04 Q0998 NOSIG RMK BLU BLU

TAF TAF EGXC
Valido dal 13 a 15 ore il 14 a 09 ore UTC


131337Z 1315/1409 22005KT 9999 FEW022
PROB30
TEMPO 1315/1316 SCT022
PROB40
TEMPO 1402/1409 7000 -SHRA BKN020
PROB30
TEMPO 1406/1409 4000 SHRA SCT012 BKN018



MetMap, La meteo Aeronautica in un colpo d'occhio ! - Copyright ORBIFLY Dicembre 2007 - Disclaimer

ORBIFLY MET'MAP TEAM :

Programmazione e sviluppo : Alexandra Zaïnal
Concezione e sviluppo : Baudouin d'Aumeries
Co-Programmazione e sviluppo : Marc-Olivier Méhu
Supporto tecnico e logistico : Manuel Goepfert
Aiuto per la traduzione : Arnaldo La Scala

Contatto : metmap@orbifly.com




FONTI E CREDITI :

   NOAA